createdAt,value
2017-08-15T09:27:43.715Z,57.20
2017-08-15T09:30:11.780Z,61.50
2017-08-15T09:32:41.298Z,60.80
2017-08-15T09:35:09.027Z,60.00
2017-08-15T09:40:21.301Z,59.90
2017-08-15T09:42:49.401Z,60.20
2017-08-15T09:45:17.963Z,60.70
2017-08-15T09:47:46.954Z,61.50
2017-08-15T09:50:19.276Z,60.70
2017-08-15T09:52:48.610Z,60.10
2017-08-15T09:55:18.415Z,60.20
2017-08-15T09:57:48.022Z,60.90
2017-08-15T10:00:22.619Z,60.80
2017-08-15T10:05:30.690Z,63.20
2017-08-15T10:07:58.711Z,62.50
2017-08-15T10:10:31.236Z,63.10
2017-08-15T10:12:58.975Z,63.10
2017-08-15T10:15:27.155Z,63.80
2017-08-15T10:17:55.580Z,64.80
2017-08-15T10:20:26.219Z,65.50
2017-08-15T10:22:54.356Z,65.90
2017-08-15T10:28:22.946Z,66.50
2017-08-15T10:30:56.714Z,67.20
2017-08-15T10:36:21.238Z,68.50
2017-08-15T10:38:56.819Z,67.40
2017-08-15T10:41:30.837Z,68.20
2017-08-15T10:44:02.968Z,70.00
2017-08-15T10:51:56.181Z,71.10
2017-08-15T10:54:26.372Z,70.30
2017-08-15T10:57:00.813Z,70.70
2017-08-15T10:59:42.906Z,70.50
2017-08-15T11:02:12.512Z,70.90
2017-08-15T11:04:50.540Z,71.70
2017-08-15T11:12:56.005Z,73.60
2017-08-15T11:27:25.214Z,76.00
2017-08-15T11:35:54.196Z,73.20
2017-08-15T11:44:15.508Z,67.30
2017-08-15T11:46:55.309Z,67.30
2017-08-15T11:52:50.555Z,64.30
2017-08-15T12:01:34.296Z,60.00
2017-08-15T12:04:02.953Z,58.30
2017-08-15T12:06:34.487Z,58.60
2017-08-15T12:09:03.045Z,59.60
2017-08-15T12:11:31.011Z,59.50
2017-08-15T12:16:40.210Z,61.90
2017-08-15T12:19:15.346Z,61.80
2017-08-15T12:21:44.013Z,61.00
2017-08-15T12:24:14.274Z,60.20
2017-08-15T12:26:51.399Z,60.90
2017-08-15T12:29:20.166Z,59.30
2017-08-15T12:31:48.803Z,59.50
2017-08-15T12:34:19.421Z,57.60
2017-08-15T12:36:51.882Z,56.30
2017-08-15T12:39:31.013Z,55.90
2017-08-15T12:44:36.445Z,56.10
2017-08-15T12:47:14.380Z,57.10
2017-08-15T12:49:44.791Z,57.40
2017-08-15T12:52:13.661Z,58.00
2017-08-15T12:54:43.527Z,58.50
2017-08-15T12:57:11.308Z,58.90
2017-08-15T12:59:40.242Z,58.10
2017-08-15T13:02:07.892Z,58.10
2017-08-15T13:04:36.314Z,57.10
2017-08-15T13:07:05.315Z,57.00
2017-08-15T13:09:33.259Z,56.60
2017-08-15T13:12:01.171Z,55.70
2017-08-15T13:14:37.724Z,55.30
2017-08-15T13:17:05.578Z,54.70
2017-08-15T13:19:33.771Z,55.10
2017-08-15T13:22:01.602Z,53.90
2017-08-15T13:24:30.231Z,53.80
2017-08-15T13:26:59.084Z,54.20
2017-08-15T13:29:29.230Z,53.70
2017-08-15T13:31:59.247Z,53.60
2017-08-15T13:34:27.121Z,53.70
2017-08-15T13:36:56.819Z,53.90
2017-08-15T13:39:34.105Z,53.30
2017-08-15T13:42:09.085Z,54.10
2017-08-15T13:44:41.299Z,55.00
2017-08-15T13:47:09.952Z,50.10
2017-08-15T13:49:39.893Z,50.90
2017-08-15T13:52:19.537Z,50.90
2017-08-15T13:54:48.421Z,51.40
2017-08-15T13:57:18.668Z,51.60
2017-08-15T13:59:48.680Z,52.40
2017-08-15T14:02:20.224Z,52.50
2017-08-15T14:04:56.491Z,52.20
2017-08-15T14:10:08.879Z,53.60
2017-08-15T14:12:51.054Z,54.10
2017-08-15T14:15:33.400Z,55.10
2017-08-15T14:18:03.609Z,55.00
2017-08-15T14:20:34.253Z,55.30
2017-08-15T14:23:07.863Z,56.00
2017-08-15T14:25:42.053Z,56.20
2017-08-15T14:28:11.868Z,56.60
2017-08-15T14:30:41.639Z,56.90
2017-08-15T14:33:11.985Z,57.20
2017-08-15T14:35:46.224Z,57.70
2017-08-15T14:38:20.128Z,57.50
2017-08-15T14:43:54.495Z,57.50
2017-08-15T14:46:26.254Z,57.30
2017-08-15T14:48:57.503Z,57.80
2017-08-15T14:51:37.124Z,59.10
2017-08-15T14:54:10.732Z,59.10
2017-08-15T14:56:39.958Z,59.90
2017-08-15T14:59:08.132Z,60.80
2017-08-15T15:01:48.373Z,61.80
2017-08-15T15:04:16.935Z,61.80
2017-08-15T15:06:53.349Z,62.30
2017-08-15T15:09:27.005Z,62.50
2017-08-15T15:11:54.781Z,62.60
2017-08-15T15:17:13.845Z,63.00
2017-08-15T15:19:41.319Z,63.20
2017-08-15T15:22:08.926Z,63.10
2017-08-15T15:24:36.501Z,63.40
2017-08-15T15:27:04.002Z,63.60
2017-08-15T15:29:31.475Z,63.60
2017-08-15T15:31:59.131Z,64.10
2017-08-15T15:34:27.963Z,64.60
2017-08-15T15:36:55.583Z,64.60
2017-08-15T15:39:25.272Z,65.30
2017-08-15T15:41:52.846Z,65.30
2017-08-15T15:44:20.616Z,65.00
2017-08-15T15:46:48.392Z,65.80
2017-08-15T15:49:15.926Z,66.50
2017-08-15T15:51:43.382Z,66.50
2017-08-15T15:54:10.896Z,66.30
2017-08-15T15:56:38.633Z,65.90
2017-08-15T15:59:06.880Z,66.50
2017-08-15T16:01:35.247Z,66.40
2017-08-15T16:04:02.836Z,66.30
2017-08-15T16:06:30.471Z,66.80
2017-08-15T16:08:57.959Z,67.00
2017-08-15T16:11:26.225Z,67.00
2017-08-15T16:13:53.729Z,67.00
2017-08-15T16:16:21.248Z,67.00
2017-08-15T16:18:49.960Z,66.90
2017-08-15T16:21:17.433Z,66.90
2017-08-15T16:23:45.047Z,67.20
2017-08-15T16:26:12.617Z,67.50
2017-08-15T16:28:41.451Z,67.40
2017-08-15T16:31:09.107Z,68.70
2017-08-15T16:33:36.607Z,69.00
2017-08-15T16:36:04.157Z,69.00
2017-08-15T16:38:31.913Z,69.00
2017-08-15T16:40:59.936Z,69.30
2017-08-15T16:43:27.374Z,69.50
2017-08-15T16:45:55.062Z,71.60
2017-08-15T16:48:22.559Z,72.60
2017-08-15T16:50:50.038Z,73.80
2017-08-15T16:53:17.504Z,75.00
2017-08-15T16:55:44.999Z,75.30
2017-08-15T16:58:13.070Z,75.60
2017-08-15T17:00:40.571Z,76.40
2017-08-15T17:03:08.179Z,77.10
2017-08-15T17:05:35.633Z,76.80
2017-08-15T17:08:03.416Z,76.70
2017-08-15T17:10:31.140Z,77.60
2017-08-15T17:12:59.518Z,77.70
2017-08-15T17:15:27.207Z,77.60
2017-08-15T17:17:54.767Z,78.10
2017-08-15T17:20:22.328Z,77.50
2017-08-15T17:22:49.839Z,77.10
2017-08-15T17:25:17.370Z,77.60
2017-08-15T17:27:44.859Z,77.60
2017-08-15T17:30:12.371Z,78.10
2017-08-15T17:32:39.879Z,78.70
2017-08-15T17:35:07.465Z,77.80
2017-08-15T17:37:35.987Z,78.30
2017-08-15T17:40:03.477Z,77.60
2017-08-15T17:42:31.054Z,77.90
2017-08-15T17:44:58.672Z,77.50
2017-08-15T17:47:26.258Z,77.80
2017-08-15T17:49:55.776Z,77.50
2017-08-15T17:52:23.567Z,77.50
2017-08-15T17:54:51.332Z,77.30
2017-08-15T17:57:19.248Z,77.00
2017-08-15T17:59:46.713Z,75.90
2017-08-15T18:02:14.292Z,76.60
2017-08-15T18:04:41.879Z,76.90
2017-08-15T18:07:10.158Z,77.90
2017-08-15T18:09:37.665Z,77.20
2017-08-15T18:12:05.456Z,77.20
2017-08-15T18:14:34.052Z,77.60
2017-08-15T18:17:01.581Z,77.60
2017-08-15T18:19:29.359Z,78.10
2017-08-15T18:21:57.213Z,78.30
2017-08-15T18:24:25.037Z,78.50
2017-08-15T18:26:52.624Z,78.70
2017-08-15T18:29:20.242Z,79.00
2017-08-15T18:31:47.794Z,79.50
2017-08-15T18:34:16.071Z,79.10
2017-08-15T18:36:43.633Z,79.10
2017-08-15T18:39:12.167Z,79.60
2017-08-15T18:41:39.725Z,79.50
2017-08-15T18:44:07.312Z,79.60
2017-08-15T18:46:34.742Z,79.70
2017-08-15T18:49:02.971Z,79.80
2017-08-15T18:51:31.022Z,79.60
2017-08-15T18:53:58.533Z,79.90
2017-08-15T18:56:27.544Z,80.00
2017-08-15T18:58:55.068Z,79.70
2017-08-15T19:01:23.415Z,80.00
2017-08-15T19:03:51.081Z,80.40
2017-08-15T19:06:19.098Z,80.30
2017-08-15T19:08:46.608Z,80.20
2017-08-15T19:11:15.221Z,80.10
2017-08-15T19:13:42.754Z,80.10
2017-08-15T19:16:10.887Z,79.80
2017-08-15T19:18:38.848Z,79.70
2017-08-15T19:21:06.419Z,79.80
2017-08-15T19:23:34.277Z,79.80
2017-08-15T19:26:02.188Z,79.90
2017-08-15T19:28:30.420Z,80.00
2017-08-15T19:30:58.664Z,79.90
2017-08-15T19:33:26.195Z,80.00
2017-08-15T19:35:53.832Z,80.00
2017-08-15T19:38:21.596Z,79.90
2017-08-15T19:40:50.220Z,79.90
2017-08-15T19:43:18.855Z,78.90
2017-08-15T19:45:46.615Z,79.30
2017-08-15T19:48:14.723Z,79.40
2017-08-15T19:50:42.507Z,79.20
2017-08-15T19:53:10.888Z,79.10
2017-08-15T19:55:39.531Z,79.00
2017-08-15T19:58:07.149Z,79.00
2017-08-15T20:00:34.831Z,79.10
2017-08-15T20:03:02.771Z,79.20
2017-08-15T20:05:30.315Z,79.30
2017-08-15T20:07:58.701Z,80.50
2017-08-15T20:10:26.217Z,79.60
2017-08-15T20:12:53.939Z,79.80
2017-08-15T20:15:21.845Z,79.60
2017-08-15T20:17:49.442Z,79.80
2017-08-15T20:20:17.686Z,80.10
2017-08-15T20:22:45.961Z,80.10
2017-08-15T20:25:13.577Z,80.50
2017-08-15T20:27:41.062Z,80.50
2017-08-15T20:30:08.592Z,80.60
2017-08-15T20:32:36.218Z,80.90
2017-08-15T20:35:03.705Z,81.20
2017-08-15T20:37:33.106Z,81.90
2017-08-15T20:40:01.743Z,82.00
2017-08-15T20:45:07.077Z,81.70
2017-08-15T20:47:34.584Z,81.70
2017-08-15T20:50:02.281Z,81.70
2017-08-15T20:52:29.880Z,81.60
2017-08-15T20:54:57.347Z,81.50
2017-08-15T20:57:24.931Z,81.50
2017-08-15T20:59:52.467Z,81.50
2017-08-15T21:02:19.975Z,81.70
2017-08-15T21:04:48.304Z,82.30
2017-08-15T21:07:16.294Z,81.70
2017-08-15T21:09:44.589Z,81.40
2017-08-15T21:12:12.050Z,81.40
2017-08-15T21:14:40.433Z,81.70
2017-08-15T21:17:08.936Z,81.80
2017-08-15T21:19:36.577Z,81.80
2017-08-15T21:22:05.105Z,82.50
2017-08-15T21:24:33.244Z,82.40
2017-08-15T21:27:00.734Z,82.60
2017-08-15T21:29:28.388Z,82.80
2017-08-15T21:31:55.902Z,83.00
2017-08-15T21:34:23.450Z,83.20
2017-08-15T21:36:51.896Z,83.40
2017-08-15T21:39:19.536Z,83.70
2017-08-15T21:41:47.014Z,84.00
2017-08-15T21:44:14.552Z,84.30
2017-08-15T21:46:42.028Z,84.00
2017-08-15T21:49:09.518Z,84.10
2017-08-15T21:51:37.350Z,84.20
2017-08-15T21:54:04.948Z,84.40
2017-08-15T21:56:32.654Z,84.40
2017-08-15T21:59:01.011Z,84.60
2017-08-15T22:01:35.127Z,83.80
2017-08-15T22:04:02.687Z,83.80
2017-08-15T22:06:30.974Z,83.70
2017-08-15T22:08:58.550Z,83.30
2017-08-15T22:11:26.123Z,83.20
2017-08-15T22:13:54.019Z,83.60
2017-08-15T22:16:21.508Z,83.80
2017-08-15T22:18:49.833Z,84.50
2017-08-15T22:21:17.316Z,84.40
2017-08-15T22:23:44.799Z,85.20
2017-08-15T22:26:13.079Z,85.60
2017-08-15T22:28:41.378Z,86.30
2017-08-15T22:31:09.688Z,85.70
2017-08-15T22:33:37.266Z,85.70
2017-08-15T22:36:04.778Z,85.60
2017-08-15T22:38:32.616Z,85.60
2017-08-15T22:41:00.199Z,85.00
2017-08-15T22:43:28.140Z,84.30
2017-08-15T22:45:56.210Z,84.40
2017-08-15T22:48:24.524Z,85.10
2017-08-15T22:50:52.150Z,85.10
2017-08-15T22:53:19.900Z,84.60
2017-08-15T22:55:47.472Z,84.00
2017-08-15T22:58:15.085Z,83.60
2017-08-15T23:00:42.613Z,83.70
2017-08-15T23:03:10.887Z,83.80
2017-08-15T23:05:38.858Z,83.90
2017-08-15T23:08:06.620Z,83.70
2017-08-15T23:10:35.823Z,84.40
2017-08-15T23:13:03.670Z,83.80
2017-08-15T23:15:31.393Z,83.80
2017-08-15T23:17:58.892Z,83.80
2017-08-15T23:20:27.137Z,83.80
2017-08-15T23:22:55.003Z,83.80
2017-08-15T23:25:22.566Z,84.00
2017-08-15T23:27:50.140Z,84.20
2017-08-15T23:30:17.715Z,84.10
2017-08-15T23:32:45.287Z,84.00
2017-08-15T23:35:13.734Z,84.40
2017-08-15T23:37:41.374Z,84.00
2017-08-15T23:40:08.962Z,84.00
2017-08-15T23:42:36.467Z,84.10
2017-08-15T23:45:04.032Z,84.20
2017-08-15T23:47:31.674Z,84.30
2017-08-15T23:49:59.239Z,84.60
2017-08-15T23:52:27.015Z,84.70
2017-08-15T23:54:55.076Z,84.80
2017-08-15T23:57:22.534Z,84.70
2017-08-15T23:59:50.094Z,84.90
